Aérodrome :
LOGIN :

S'inscrire | Disclaimer

   EN    FR    IT 

 










Légende :    VFR   VFR Marginal   IFR   IFR Intensif   IFR Très Intensif
Visi : 
Plafond : 
>= 8 km
>= 3000ft
5 à 8 km
1000 à 3000 ft
1500m à 5 km
500 à 1000 ft
800 à 1500m
200 à 500 ft
< 800m
< 200 ft
Symboles :   Orages  Brouillard  Fortes neiges  Fortes précipitations  Vent > 20 kt
SIGMETs :   Divers  Orages  Givrage  Turbulence  Onde Orograph.  Cendres Volcan.






- Altitude de l'aérodrome : 1906 ft
- Code IATA : INN


LOWI - Innsbruck

DERNIER METAR :
  • 121750Z VRB02KT 6000 SCT005 BKN014 00/M00 Q1002 R08/19//95 NOSIG

METARs EXPIRÉS :
  • 121720Z VRB01KT 4000 -SN BR SCT005 BKN014 M00/M01 Q1003 R08/19//95 NOSIG
  • 121650Z VRB01KT 4000 -SN BR SCT005 BKN012 00/M00 Q1003 R08/19//95 NOSIG
  • 121620Z 28002KT 3000 -SN BR SCT005 SCT012 BKN030 00/M00 Q1003 R08/19//95 NOSIG
  • 121550Z 27002KT 3000 -SN BR SCT005 SCT012 BKN030 00/M00 Q1003 R08/19//95 NOSIG
  • 121520Z VRB01KT 3000 -SN BR SCT005 SCT012 BKN030 01/M00 Q1003 R08/19//95 NOSIG

TAF TAF LOWI
Valide du 12 à 18h jusqu'au 13 à 18h UTC


121715Z 1218/1318 VRB02KT 3000 -SN SCT005 BKN012 TX02/1314Z TNM03/1301Z
BECMG 1300/1302 SCT005 BKN120
TEMPO 1312/1316 27010G25KT -SHSN SCT030 BKN060



MET'MAP, la Météo Aéronautique d'un coup d'oeil ! - Copyright ORBIFLY Décembre 2007 - Disclaimer

ORBIFLY MET'MAP TEAM :

Programmation & Développement : Alexandra Zaïnal
Sur une idée originale de : Baudouin d'Aumeries
Assistance à la programmation : Marc-Olivier Méhu
Soutien technique & logistique : Manuel Goepfert

Contact : metmap@orbifly.com




SOURCES & CREDITS :

   NOAA